Time;durP1;ratioP1;P1;durP2;ratioP2;P2;SDS_P1;SDS_P2;PMS_P1;PMS_P2;Temp;Humidity;BMP_temperature;BMP_pressure;BME280_temperature;BME280_humidity;BME280_pressure;Samples;Min_cycle;Max_cycle;Signal;HPM_P1;HPM_P2
2021/09/20 00:00:46;;;;;;;8.52;3.47;;;512.90;1945.60;;;;;;5053991;28;20067;-79
2021/09/20 00:03:12;;;;;;;9.77;4.15;;;512.90;1920.00;;;;;;5054442;28;20461;-83
2021/09/20 00:05:38;;;;;;;7.85;3.63;;;512.90;1945.60;;;;;;5054586;28;20021;-79
2021/09/20 00:08:04;;;;;;;5.50;3.50;;;512.90;1945.60;;;;;;5050879;28;20013;-81
2021/09/20 00:10:30;;;;;;;7.15;3.28;;;512.90;1920.00;;;;;;5042777;28;20465;-79
2021/09/20 00:12:56;;;;;;;9.43;3.85;;;512.90;1920.00;;;;;;5054100;28;20036;-80
2021/09/20 00:15:21;;;;;;;6.90;3.67;;;512.90;1920.00;;;;;;5054246;28;20024;-79
2021/09/20 00:17:47;;;;;;;7.13;3.20;;;512.80;1945.60;;;;;;5039567;28;20044;-78
2021/09/20 00:20:13;;;;;;;10.68;3.35;;;512.80;1945.60;;;;;;5047046;28;20405;-83
2021/09/20 00:22:40;;;;;;;5.28;3.45;;;512.90;1945.60;;;;;;5044747;28;20476;-83
2021/09/20 00:25:06;;;;;;;7.88;4.28;;;512.80;1945.60;;;;;;5053974;28;20033;-84
2021/09/20 00:27:32;;;;;;;8.55;3.72;;;512.80;1945.60;;;;;;5052549;28;20469;-78
2021/09/20 00:29:58;;;;;;;7.53;3.67;;;512.90;1945.60;;;;;;5053915;28;20032;-78
2021/09/20 00:32:24;;;;;;;7.00;3.35;;;512.80;1945.60;;;;;;5045203;28;20022;-83
2021/09/20 00:34:49;;;;;;;6.70;3.80;;;512.90;1945.60;;;;;;5046387;28;20487;-79
2021/09/20 00:37:15;;;;;;;5.18;3.60;;;512.90;1945.60;;;;;;5052551;28;20381;-79
2021/09/20 00:39:41;;;;;;;7.82;3.33;;;512.80;1971.20;;;;;;5052526;28;20041;-79
2021/09/20 00:42:07;;;;;;;6.38;3.00;;;512.80;1971.20;;;;;;5053911;28;20500;-81
2021/09/20 00:44:33;;;;;;;7.30;3.58;;;512.80;1971.20;;;;;;5038491;28;20028;-80
2021/09/20 00:46:59;;;;;;;6.32;3.40;;;512.80;1971.20;;;;;;5053517;28;20036;-79
2021/09/20 00:49:25;;;;;;;8.35;3.63;;;512.80;1996.80;;;;;;5048297;28;20108;-83
2021/09/20 00:51:51;;;;;;;6.03;3.20;;;512.70;1996.80;;;;;;5042450;28;20048;-78
2021/09/20 00:54:18;;;;;;;6.82;3.35;;;512.60;1996.80;;;;;;5052165;28;20025;-78
2021/09/20 00:56:44;;;;;;;9.88;3.88;;;512.70;2022.40;;;;;;5053304;28;20041;-79
2021/09/20 00:59:10;;;;;;;6.78;4.00;;;512.50;2099.20;;;;;;5052107;28;20029;-77
2021/09/20 01:01:36;;;;;;;7.25;3.83;;;512.50;2124.80;;;;;;5051904;28;20040;-78
2021/09/20 01:04:03;;;;;;;7.20;4.38;;;512.40;2176.00;;;;;;5052421;28;20020;-78
2021/09/20 01:06:29;;;;;;;9.57;4.35;;;512.30;2176.00;;;;;;5052288;28;20013;-78
2021/09/20 01:08:55;;;;;;;6.43;4.60;;;512.20;2201.60;;;;;;5042174;28;20074;-79
2021/09/20 01:11:21;;;;;;;6.40;4.53;;;512.10;2227.20;;;;;;5048604;28;20103;-78
2021/09/20 01:13:47;;;;;;;9.77;5.03;;;512.20;2227.20;;;;;;5051458;28;20388;-82
2021/09/20 01:16:13;;;;;;;9.63;4.60;;;512.10;2227.20;;;;;;5052038;28;20100;-80
2021/09/20 01:18:39;;;;;;;12.93;4.95;;;512.20;2227.20;;;;;;5051839;28;20135;-78
2021/09/20 01:21:04;;;;;;;7.07;4.40;;;512.10;2227.20;;;;;;5052094;28;20047;-79
2021/09/20 01:23:30;;;;;;;7.88;4.28;;;512.10;2227.20;;;;;;5039492;28;20108;-78
2021/09/20 01:25:56;;;;;;;9.10;4.40;;;512.10;2227.20;;;;;;5051868;28;20033;-82
2021/09/20 01:28:22;;;;;;;7.60;3.95;;;512.10;2227.20;;;;;;5051919;28;20098;-82
2021/09/20 01:30:48;;;;;;;7.43;4.15;;;512.10;2227.20;;;;;;5051996;28;20432;-82
2021/09/20 01:33:14;;;;;;;6.00;4.25;;;512.00;2227.20;;;;;;5052420;28;20488;-78
2021/09/20 01:35:39;;;;;;;7.75;4.43;;;487.30;2252.80;;;;;;5038768;28;20025;-82
2021/09/20 01:38:05;;;;;;;6.50;3.83;;;487.30;2252.80;;;;;;5051731;28;20025;-82
2021/09/20 01:40:32;;;;;;;10.43;4.45;;;487.30;2252.80;;;;;;5051695;28;20040;-81
2021/09/20 01:42:58;;;;;;;6.55;4.20;;;487.30;2227.20;;;;;;5052070;28;20113;-80
2021/09/20 01:45:25;;;;;;;9.50;4.93;;;487.10;2252.80;;;;;;5040433;28;20463;-81
2021/09/20 01:47:52;;;;;;;10.90;4.78;;;487.10;2252.80;;;;;;5050627;28;20029;-81
2021/09/20 01:50:18;;;;;;;6.68;4.40;;;487.10;2278.40;;;;;;5051889;28;20171;-81
2021/09/20 01:52:43;;;;;;;13.75;4.97;;;487.00;2380.80;;;;;;5051687;28;20117;-80
2021/09/20 01:55:10;;;;;;;7.28;4.88;;;487.00;2380.80;;;;;;5043639;28;20370;-78
2021/09/20 01:57:36;;;;;;;8.07;5.50;;;486.80;2380.80;;;;;;5046653;28;20123;-77
2021/09/20 02:00:04;;;;;;;16.42;5.63;;;486.60;2380.80;;;;;;5045701;28;20442;-78
2021/09/20 02:02:30;;;;;;;7.93;5.18;;;486.50;2380.80;;;;;;5046313;28;20029;-78
2021/09/20 02:04:56;;;;;;;9.00;5.13;;;486.40;2380.80;;;;;;5051522;28;20028;-83
2021/09/20 02:07:21;;;;;;;9.13;4.80;;;486.50;2380.80;;;;;;5052825;28;20032;-77
2021/09/20 02:09:47;;;;;;;9.57;4.75;;;486.50;2380.80;;;;;;5051603;28;20465;-79
2021/09/20 02:12:13;;;;;;;7.18;4.90;;;486.40;2380.80;;;;;;5042013;28;20037;-80
2021/09/20 02:14:39;;;;;;;7.82;4.95;;;486.50;2380.80;;;;;;5047033;28;20511;-78
2021/09/20 02:17:04;;;;;;;12.93;5.15;;;486.40;2380.80;;;;;;5052594;28;20029;-78
2021/09/20 02:19:30;;;;;;;8.52;6.03;;;;;;;;;;5051455;28;20037;-84
2021/09/20 02:21:56;;;;;;;12.52;6.10;;;;;;;;;;5037326;28;20079;-84
2021/09/20 02:24:22;;;;;;;9.93;6.30;;;;;;;;;;5053899;28;20120;-78
2021/09/20 02:26:48;;;;;;;10.82;6.03;;;461.10;2380.80;;;;;;5056121;28;20025;-84
2021/09/20 02:29:14;;;;;;;8.82;5.97;;;461.20;2380.80;;;;;;5056373;28;20083;-78
2021/09/20 02:31:40;;;;;;;12.63;7.20;;;461.20;2380.80;;;;;;5054835;28;20040;-78
2021/09/20 02:34:06;;;;;;;10.25;6.78;;;461.30;2380.80;;;;;;5055223;28;20021;-78
2021/09/20 02:36:32;;;;;;;12.32;7.63;;;461.30;2380.80;;;;;;5042667;28;20048;-78
2021/09/20 02:38:58;;;;;;;14.77;7.32;;;461.30;2380.80;;;;;;5055035;28;20029;-84
2021/09/20 02:41:24;;;;;;;10.85;6.63;;;461.20;2380.80;;;;;;5043318;28;20033;-81
2021/09/20 02:43:50;;;;;;;8.68;6.00;;;461.10;2380.80;;;;;;5053193;28;20017;-78
2021/09/20 02:46:16;;;;;;;7.35;5.63;;;461.10;2380.80;;;;;;5054767;28;20021;-81
2021/09/20 02:48:41;;;;;;;8.23;4.90;;;461.00;2380.80;;;;;;5054670;28;20136;-79
2021/09/20 02:51:07;;;;;;;8.80;5.50;;;461.10;2380.80;;;;;;5040646;28;20480;-83
2021/09/20 02:53:33;;;;;;;12.85;5.72;;;461.00;2380.80;;;;;;5054685;28;20040;-78
2021/09/20 02:55:59;;;;;;;10.15;4.85;;;461.00;2380.80;;;;;;5055451;28;20132;-78
2021/09/20 02:58:24;;;;;;;11.98;5.65;;;461.10;2380.80;;;;;;5054383;28;20469;-82
2021/09/20 03:00:50;;;;;;;6.72;4.32;;;461.00;2380.80;;;;;;5054790;28;20040;-78
2021/09/20 03:03:16;;;;;;;12.15;5.53;;;460.90;2380.80;;;;;;5053976;28;20075;-77
2021/09/20 03:05:42;;;;;;;7.70;4.80;;;460.80;2380.80;;;;;;5055529;28;20021;-77
2021/09/20 03:08:08;;;;;;;6.97;5.05;;;460.80;2380.80;;;;;;5054032;28;20086;-78
2021/09/20 03:10:35;;;;;;;10.23;4.40;;;436.10;2355.20;;;;;;5055395;28;20378;-77
2021/09/20 03:13:02;;;;;;;11.98;4.78;;;436.10;2355.20;;;;;;5053494;28;20040;-77
2021/09/20 03:15:28;;;;;;;10.13;5.20;;;436.10;2355.20;;;;;;5055294;28;20052;-78
2021/09/20 03:17:54;;;;;;;6.05;4.22;;;436.10;2355.20;;;;;;5053741;28;20065;-78
2021/09/20 03:20:20;;;;;;;7.13;4.25;;;460.80;2380.80;;;;;;5053920;28;20029;-77
2021/09/20 03:22:45;;;;;;;10.75;4.85;;;460.80;2380.80;;;;;;5041526;28;20113;-77
2021/09/20 03:25:13;;;;;;;8.15;5.15;;;436.10;2355.20;;;;;;5052363;28;20025;-77
2021/09/20 03:27:39;;;;;;;8.45;4.95;;;436.10;2355.20;;;;;;5053749;28;20021;-77
2021/09/20 03:30:06;;;;;;;9.00;5.20;;;436.10;2355.20;;;;;;5053779;28;20082;-77
2021/09/20 03:32:32;;;;;;;7.88;4.65;;;460.80;2380.80;;;;;;5053879;28;20503;-77
2021/09/20 03:34:58;;;;;;;8.63;4.97;;;436.10;2355.20;;;;;;5053469;28;20027;-77
2021/09/20 03:37:23;;;;;;;6.50;4.90;;;461.10;2380.80;;;;;;5053020;28;20024;-78
2021/09/20 03:39:49;;;;;;;11.52;4.93;;;460.80;2380.80;;;;;;5054922;28;20392;-78
2021/09/20 03:42:16;;;;;;;8.02;5.57;;;435.90;2355.20;;;;;;5052440;28;20457;-76
2021/09/20 03:44:41;;;;;;;8.23;5.50;;;436.00;2355.20;;;;;;5040490;28;20457;-78
2021/09/20 03:47:08;;;;;;;6.93;5.03;;;436.00;2355.20;;;;;;5040567;28;20084;-80
2021/09/20 03:49:34;;;;;;;8.55;5.40;;;435.90;2355.20;;;;;;5033266;28;20079;-81
2021/09/20 03:52:00;;;;;;;9.80;5.72;;;435.90;2355.20;;;;;;5044563;28;20025;-78
2021/09/20 03:54:26;;;;;;;7.72;5.35;;;435.80;2355.20;;;;;;5053219;28;20524;-78
2021/09/20 03:56:52;;;;;;;8.07;6.22;;;435.80;2355.20;;;;;;5054434;28;20116;-77
2021/09/20 03:59:17;;;;;;;7.43;5.57;;;435.80;2355.20;;;;;;5053040;28;20143;-76
2021/09/20 04:01:43;;;;;;;9.23;5.75;;;435.90;2355.20;;;;;;5045770;28;20115;-77
2021/09/20 04:04:09;;;;;;;7.95;5.60;;;435.90;2355.20;;;;;;5046395;28;20025;-78
2021/09/20 04:06:35;;;;;;;11.55;6.68;;;435.90;2355.20;;;;;;5052367;28;20026;-80
2021/09/20 04:09:02;;;;;;;7.68;5.80;;;436.10;2355.20;;;;;;5053488;28;20124;-80
2021/09/20 04:11:29;;;;;;;8.70;6.18;;;436.00;2355.20;;;;;;5053277;28;20021;-78
2021/09/20 04:13:54;;;;;;;9.50;6.35;;;436.10;2355.20;;;;;;5053461;28;20029;-79
2021/09/20 04:16:20;;;;;;;10.32;6.78;;;436.10;2355.20;;;;;;5053311;28;20017;-81
2021/09/20 04:18:46;;;;;;;9.63;5.90;;;436.10;2355.20;;;;;;5054108;28;20388;-82
2021/09/20 04:21:12;;;;;;;8.60;6.20;;;436.10;2355.20;;;;;;5052993;28;20025;-77
2021/09/20 04:23:37;;;;;;;10.07;6.03;;;436.10;2355.20;;;;;;5048336;28;20033;-77
2021/09/20 04:26:03;;;;;;;7.68;5.80;;;435.90;2355.20;;;;;;5043990;28;20025;-78
2021/09/20 04:28:29;;;;;;;10.52;6.22;;;435.90;2355.20;;;;;;5053720;28;20021;-77
2021/09/20 04:30:55;;;;;;;12.30;5.70;;;435.90;2355.20;;;;;;5044230;28;20382;-77
2021/09/20 04:33:22;;;;;;;7.05;5.72;;;435.90;2355.20;;;;;;5047809;28;20051;-77
2021/09/20 04:35:48;;;;;;;8.38;5.90;;;435.90;2355.20;;;;;;5052531;28;20159;-78
2021/09/20 04:38:15;;;;;;;10.07;6.75;;;435.90;2355.20;;;;;;5053594;28;20527;-77
2021/09/20 04:40:42;;;;;;;7.78;5.93;;;435.80;2355.20;;;;;;5052590;28;20029;-77
2021/09/20 04:43:09;;;;;;;8.90;6.97;;;435.70;2355.20;;;;;;5053513;28;20029;-78
2021/09/20 04:45:36;;;;;;;12.10;6.93;;;435.50;2355.20;;;;;;5051961;28;20079;-76
2021/09/20 04:48:02;;;;;;;11.32;6.70;;;435.50;2355.20;;;;;;5052140;28;20032;-77
2021/09/20 04:50:28;;;;;;;9.25;6.85;;;435.60;2355.20;;;;;;5052086;28;20029;-80
2021/09/20 04:52:54;;;;;;;10.50;6.53;;;435.60;2355.20;;;;;;5048870;28;20036;-77
2021/09/20 04:55:20;;;;;;;9.30;6.60;;;435.70;2355.20;;;;;;5040014;28;20401;-77
2021/09/20 04:57:46;;;;;;;8.48;5.88;;;435.70;2355.20;;;;;;5033103;28;20108;-77
2021/09/20 05:00:12;;;;;;;9.85;6.20;;;435.80;2355.20;;;;;;5031924;28;20041;-79
2021/09/20 05:02:38;;;;;;;10.90;6.43;;;435.80;2355.20;;;;;;5031913;28;20025;-77
2021/09/20 05:05:05;;;;;;;8.30;5.90;;;435.80;2355.20;;;;;;5065143;28;20033;-79
2021/09/20 05:07:31;;;;;;;8.32;6.00;;;435.80;2355.20;;;;;;5031960;28;20072;-78
2021/09/20 05:09:56;;;;;;;9.52;6.05;;;460.80;2380.80;;;;;;5031931;28;20041;-77
2021/09/20 05:12:22;;;;;;;10.82;6.55;;;435.80;2355.20;;;;;;5031949;28;20064;-81
2021/09/20 05:14:48;;;;;;;8.63;6.68;;;435.70;2355.20;;;;;;5031794;28;20099;-78
2021/09/20 05:17:13;;;;;;;12.40;6.60;;;435.70;2355.20;;;;;;5033242;28;20124;-77
2021/09/20 05:19:39;;;;;;;10.57;6.18;;;435.70;2355.20;;;;;;5031949;28;20042;-77
2021/09/20 05:22:05;;;;;;;11.70;6.85;;;435.70;2355.20;;;;;;5031214;28;20067;-78
2021/09/20 05:24:31;;;;;;;10.35;7.07;;;435.70;2355.20;;;;;;5031524;28;20025;-77
2021/09/20 05:26:57;;;;;;;10.05;6.88;;;435.60;2355.20;;;;;;5031357;28;20040;-78
2021/09/20 05:29:22;;;;;;;10.70;6.80;;;435.60;2355.20;;;;;;5039692;28;20434;-77
2021/09/20 05:31:48;;;;;;;11.10;8.02;;;435.60;2355.20;;;;;;5036633;28;20021;-79
2021/09/20 05:34:14;;;;;;;11.50;6.50;;;435.60;2355.20;;;;;;5032614;28;20026;-78
2021/09/20 05:36:40;;;;;;;13.90;8.55;;;435.60;2355.20;;;;;;5031627;28;20014;-77
2021/09/20 05:39:06;;;;;;;11.00;6.32;;;435.70;2355.20;;;;;;5031455;28;20037;-77
2021/09/20 05:41:32;;;;;;;8.00;5.80;;;435.70;2355.20;;;;;;5031544;28;20029;-76
2021/09/20 05:43:57;;;;;;;8.02;6.35;;;435.70;2355.20;;;;;;5046380;28;20035;-77
2021/09/20 05:46:23;;;;;;;12.10;6.20;;;435.70;2355.20;;;;;;5044247;28;20096;-78
2021/09/20 05:48:49;;;;;;;8.93;6.20;;;435.70;2355.20;;;;;;5044538;28;20043;-79
2021/09/20 05:51:15;;;;;;;7.75;5.80;;;435.70;2355.20;;;;;;5038805;28;20023;-80
2021/09/20 05:53:42;;;;;;;9.00;6.13;;;435.60;2355.20;;;;;;5051916;28;20124;-78
2021/09/20 05:56:07;;;;;;;9.63;6.45;;;435.60;2355.20;;;;;;5052703;28;20041;-79
2021/09/20 05:58:33;;;;;;;11.48;7.25;;;435.60;2355.20;;;;;;5051911;28;20032;-80
2021/09/20 06:01:00;;;;;;;8.50;6.70;;;435.70;2355.20;;;;;;5055774;28;20366;-81
2021/09/20 06:03:27;;;;;;;12.15;6.18;;;435.80;2355.20;;;;;;5055507;28;20051;-79
2021/09/20 06:05:53;;;;;;;9.82;6.82;;;435.90;2355.20;;;;;;5056736;28;20029;-79
2021/09/20 06:08:18;;;;;;;9.88;7.00;;;435.90;2355.20;;;;;;5055611;28;20147;-79
2021/09/20 06:10:44;;;;;;;11.20;7.75;;;435.60;2355.20;;;;;;5055598;28;20377;-78
2021/09/20 06:13:10;;;;;;;14.57;7.35;;;435.30;2355.20;;;;;;5055417;28;20024;-81
2021/09/20 06:15:37;;;;;;;14.60;7.80;;;435.30;2355.20;;;;;;5055777;28;20025;-81
2021/09/20 06:18:04;;;;;;;15.18;8.10;;;435.40;2355.20;;;;;;5055648;28;20028;-80
2021/09/20 06:20:30;;;;;;;16.85;7.72;;;435.50;2355.20;;;;;;5056709;28;20029;-79
2021/09/20 06:22:56;;;;;;;13.73;7.90;;;435.60;2355.20;;;;;;5056924;28;20027;-80
2021/09/20 06:25:24;;;;;;;14.45;7.53;;;435.40;2355.20;;;;;;5054824;28;20041;-78
2021/09/20 06:27:50;;;;;;;14.52;7.38;;;435.60;2355.20;;;;;;5055737;28;20029;-83
2021/09/20 06:30:16;;;;;;;11.85;7.68;;;435.20;2355.20;;;;;;5041722;28;20021;-85
2021/09/20 06:32:43;;;;;;;11.55;7.35;;;435.30;2355.20;;;;;;5045635;28;20155;-81
2021/09/20 06:35:10;;;;;;;10.43;7.40;;;435.40;2355.20;;;;;;5051772;28;20047;-79
2021/09/20 06:37:36;;;;;;;9.18;6.75;;;435.50;2355.20;;;;;;5056585;28;20028;-79
2021/09/20 06:40:03;;;;;;;11.75;8.00;;;435.50;2355.20;;;;;;5054909;28;20059;-78
2021/09/20 06:42:28;;;;;;;13.25;8.10;;;435.60;2355.20;;;;;;5052161;28;20025;-83
2021/09/20 06:44:54;;;;;;;12.15;7.32;;;435.70;2355.20;;;;;;5035670;28;20037;-83
2021/09/20 06:47:21;;;;;;;12.18;7.20;;;435.70;2355.20;;;;;;5050389;28;20025;-78
2021/09/20 06:49:47;;;;;;;8.57;6.40;;;435.70;2355.20;;;;;;5042270;28;20021;-83
2021/09/20 06:52:14;;;;;;;9.38;7.07;;;435.80;2355.20;;;;;;5056449;28;20021;-81
2021/09/20 06:54:39;;;;;;;11.73;7.75;;;435.70;2355.20;;;;;;5056214;28;20095;-83
2021/09/20 06:57:05;;;;;;;12.18;7.28;;;435.70;2355.20;;;;;;5055913;28;20087;-79
2021/09/20 06:59:31;;;;;;;15.60;7.50;;;435.80;2355.20;;;;;;5054796;28;20071;-80
2021/09/20 07:01:57;;;;;;;11.77;7.57;;;435.80;2355.20;;;;;;5055134;28;20021;-78
2021/09/20 07:04:23;;;;;;;14.23;7.25;;;435.90;2355.20;;;;;;5041691;28;20409;-79
2021/09/20 07:06:49;;;;;;;8.82;6.85;;;435.90;2355.20;;;;;;5055022;28;20420;-82
2021/09/20 07:09:15;;;;;;;12.23;6.97;;;436.00;2355.20;;;;;;5041801;28;20040;-78
2021/09/20 07:11:41;;;;;;;12.43;8.77;;;435.90;2355.20;;;;;;5033345;28;20041;-81
2021/09/20 07:14:07;;;;;;;11.90;7.93;;;436.10;2355.20;;;;;;5034726;28;20115;-82
2021/09/20 07:16:33;;;;;;;9.68;6.97;;;435.60;2355.20;;;;;;5034338;28;20021;-80
2021/09/20 07:18:59;;;;;;;12.80;6.75;;;435.50;2355.20;;;;;;5034944;28;20075;-89
2021/09/20 07:21:26;;;;;;;14.93;7.05;;;435.80;2355.20;;;;;;5034424;28;20031;-80
2021/09/20 07:23:55;;;;;;;10.30;6.30;;;460.90;2380.80;;;;;;5034131;28;20049;-77
2021/09/20 07:26:22;;;;;;;9.25;6.40;;;436.10;2355.20;;;;;;5034632;28;20056;-84
2021/09/20 07:28:48;;;;;;;11.75;6.80;;;436.10;2355.20;;;;;;5034328;28;20026;-78
2021/09/20 07:31:15;;;;;;;8.77;6.25;;;460.80;2380.80;;;;;;5034559;28;20033;-85
2021/09/20 07:33:41;;;;;;;11.38;6.70;;;436.10;2355.20;;;;;;5035161;28;20100;-79
2021/09/20 07:36:08;;;;;;;10.32;6.60;;;460.80;2380.80;;;;;;5035349;28;20108;-79
2021/09/20 07:38:34;;;;;;;9.55;6.68;;;436.10;2355.20;;;;;;5035095;28;20121;-79
2021/09/20 07:41:01;;;;;;;8.90;6.57;;;460.90;2380.80;;;;;;5035064;28;20100;-86
2021/09/20 07:43:27;;;;;;;9.98;7.07;;;435.90;2355.20;;;;;;5040058;28;20022;-83
2021/09/20 07:45:52;;;;;;;12.23;7.22;;;435.70;2355.20;;;;;;5035269;28;20025;-88
2021/09/20 07:48:18;;;;;;;10.18;6.88;;;435.70;2355.20;;;;;;5036875;28;20025;-83
2021/09/20 07:50:44;;;;;;;10.77;6.82;;;435.60;2355.20;;;;;;5033871;28;20025;-84
2021/09/20 07:53:10;;;;;;;10.20;6.75;;;435.60;2355.20;;;;;;5033802;28;20112;-79
2021/09/20 07:55:36;;;;;;;13.15;7.40;;;435.60;2355.20;;;;;;5033364;28;20042;-80
2021/09/20 07:58:06;;;;;;;8.57;6.53;;;435.60;2355.20;;;;;;5034430;28;20036;-88
2021/09/20 08:00:34;;;;;;;10.63;6.63;;;435.60;2355.20;;;;;;5033950;28;20389;-91
2021/09/20 08:02:59;;;;;;;10.02;5.97;;;435.70;2355.20;;;;;;5043467;28;20021;-87
2021/09/20 08:05:25;;;;;;;11.40;6.63;;;435.80;2355.20;;;;;;5033667;28;20028;-80
2021/09/20 08:07:51;;;;;;;10.32;7.05;;;435.90;2355.20;;;;;;5033877;28;20063;-87
2021/09/20 08:10:17;;;;;;;13.70;8.95;;;435.60;2355.20;;;;;;5037421;28;20515;-81
2021/09/20 08:12:43;;;;;;;11.30;8.45;;;435.40;2355.20;;;;;;5039168;28;20033;-79
2021/09/20 08:15:10;;;;;;;13.45;8.18;;;435.40;2355.20;;;;;;5034885;28;20428;-83
2021/09/20 08:17:36;;;;;;;10.82;7.45;;;410.40;2355.20;;;;;;5040803;28;20388;-78
2021/09/20 08:20:05;;;;;;;8.98;7.05;;;410.50;2355.20;;;;;;5034809;28;20655;-78
2021/09/20 08:22:32;;;;;;;10.82;6.82;;;435.30;2355.20;;;;;;5039044;28;20099;-78
2021/09/20 08:24:59;;;;;;;12.20;6.40;;;435.40;2355.20;;;;;;5037391;28;20029;-83
2021/09/20 08:27:25;;;;;;;11.50;7.10;;;435.40;2355.20;;;;;;5037599;28;20017;-83
2021/09/20 08:29:51;;;;;;;11.50;6.78;;;435.60;2355.20;;;;;;5038311;28;20255;-82
2021/09/20 08:32:18;;;;;;;10.38;6.38;;;435.50;2355.20;;;;;;5032892;28;20049;-78
2021/09/20 08:34:43;;;;;;;7.88;6.35;;;435.20;2355.20;;;;;;5034220;28;20551;-83
2021/09/20 08:37:09;;;;;;;8.07;5.80;;;410.50;2355.20;;;;;;5044190;28;20116;-83
2021/09/20 08:39:35;;;;;;;9.65;6.72;;;435.30;2355.20;;;;;;5041640;28;20029;-77
2021/09/20 08:42:01;;;;;;;9.32;5.82;;;435.30;2355.20;;;;;;5032513;28;20095;-77
2021/09/20 08:44:26;;;;;;;8.07;5.82;;;435.30;2355.20;;;;;;5048378;28;20024;-87
2021/09/20 08:46:54;;;;;;;11.45;6.43;;;435.30;2355.20;;;;;;5043995;28;20035;-84
2021/09/20 08:49:22;;;;;;;10.07;6.22;;;435.20;2355.20;;;;;;5052227;28;20405;-77
2021/09/20 08:51:50;;;;;;;9.10;6.05;;;410.40;2355.20;;;;;;5052507;28;20020;-86
2021/09/20 08:54:17;;;;;;;10.65;6.50;;;410.30;2355.20;;;;;;5052159;28;20551;-84
2021/09/20 08:56:43;;;;;;;10.13;6.35;;;410.20;2355.20;;;;;;5045539;28;20164;-83
2021/09/20 08:59:12;;;;;;;11.77;7.22;;;410.20;2355.20;;;;;;5046606;28;20049;-77
2021/09/20 09:01:39;;;;;;;13.68;6.65;;;410.20;2355.20;;;;;;5045809;28;20029;-82
2021/09/20 09:04:28;;;;;;;8.70;6.28;;;410.30;2355.20;;;;;;5032319;28;20025;-79
2021/09/20 09:06:59;;;;;;;10.93;6.88;;;410.20;2355.20;;;;;;5020432;28;20022;-77
2021/09/20 09:09:49;;;;;;;9.93;7.15;;;410.00;2355.20;;;;;;5047348;28;20025;-84
2021/09/20 09:12:25;;;;;;;11.63;6.75;;;410.10;2355.20;;;;;;5031517;28;20032;-81
2021/09/20 09:14:52;;;;;;;13.63;7.73;;;410.00;2355.20;;;;;;5029725;28;20030;-81
2021/09/20 09:17:36;;;;;;;11.30;8.35;;;409.90;2355.20;;;;;;5033414;28;20048;-78
2021/09/20 09:20:19;;;;;;;8.65;6.00;;;409.90;2355.20;;;;;;5032118;28;20037;-78
2021/09/20 09:22:52;;;;;;;9.68;6.50;;;409.70;2355.20;;;;;;5033289;28;20101;-79
2021/09/20 09:25:27;;;;;;;9.30;6.22;;;409.60;2355.20;;;;;;5032775;28;20478;-79
2021/09/20 09:27:58;;;;;;;9.80;6.10;;;384.90;2329.60;;;;;;5026497;28;20025;-78
2021/09/20 09:30:39;;;;;;;8.32;6.05;;;384.80;2329.60;;;;;;5032014;28;20103;-77
2021/09/20 09:33:14;;;;;;;11.25;6.82;;;384.70;2329.60;;;;;;5032721;28;20477;-84
2021/09/20 09:35:47;;;;;;;13.93;7.15;;;384.80;2329.60;;;;;;5018647;28;20025;-77
2021/09/20 09:38:13;;;;;;;13.27;6.18;;;384.80;2329.60;;;;;;5046259;28;20492;-78
2021/09/20 09:40:58;;;;;;;8.55;6.70;;;384.80;2329.60;;;;;;5031717;28;20037;-80
2021/09/20 09:43:29;;;;;;;14.35;7.45;;;384.60;2329.60;;;;;;5029963;28;20044;-79
2021/09/20 09:46:16;;;;;;;10.13;6.45;;;384.60;2329.60;;;;;;5031613;28;20026;-82
2021/09/20 09:48:44;;;;;;;8.95;6.00;;;384.60;2329.60;;;;;;5033161;28;20033;-78
2021/09/20 09:51:10;;;;;;;10.77;6.32;;;384.30;2329.60;;;;;;5032898;28;20026;-78
2021/09/20 09:53:42;;;;;;;18.35;6.30;;;384.20;2329.60;;;;;;5039612;28;20481;-81
2021/09/20 09:56:28;;;;;;;12.90;5.93;;;384.30;2329.60;;;;;;5040046;28;20056;-80
2021/09/20 09:59:04;;;;;;;12.43;6.45;;;384.40;2329.60;;;;;;5031035;28;20064;-84
2021/09/20 10:01:33;;;;;;;8.90;5.45;;;384.30;2329.60;;;;;;5029618;28;20497;-77
2021/09/20 10:04:20;;;;;;;10.30;5.50;;;384.10;2329.60;;;;;;5032274;28;20022;-82
2021/09/20 10:06:48;;;;;;;8.50;6.35;;;359.30;2329.60;;;;;;5057935;28;20025;-77
2021/09/20 10:09:20;;;;;;;7.85;6.05;;;384.00;2329.60;;;;;;5031112;28;20033;-78
2021/09/20 10:11:48;;;;;;;11.30;6.15;;;384.10;2329.60;;;;;;5036966;28;20088;-77
2021/09/20 10:14:15;;;;;;;9.18;6.38;;;384.00;2329.60;;;;;;5051685;28;20103;-77
2021/09/20 10:16:42;;;;;;;8.27;6.18;;;359.30;2329.60;;;;;;5037400;28;20013;-78
2021/09/20 10:19:08;;;;;;;9.70;5.72;;;384.00;2329.60;;;;;;5041953;28;20033;-79
2021/09/20 10:21:34;;;;;;;10.35;6.13;;;384.00;2329.60;;;;;;5032319;28;20029;-77
2021/09/20 10:24:01;;;;;;;11.07;5.53;;;384.10;2329.60;;;;;;5040074;28;20158;-79
2021/09/20 10:26:28;;;;;;;9.63;6.18;;;384.10;2329.60;;;;;;5037524;28;20026;-76
2021/09/20 10:29:01;;;;;;;12.20;7.03;;;384.10;2329.60;;;;;;5032556;28;20036;-79
2021/09/20 10:31:28;;;;;;;9.70;6.53;;;384.10;2329.60;;;;;;5031431;28;20099;-81
2021/09/20 10:34:19;;;;;;;10.05;6.35;;;384.30;2329.60;;;;;;5044495;28;20075;-78
2021/09/20 10:37:01;;;;;;;12.10;6.97;;;384.30;2329.60;;;;;;5032461;28;20073;-81
2021/09/20 10:39:56;;;;;;;9.95;6.88;;;384.40;2329.60;;;;;;5042878;28;20029;-84
2021/09/20 10:42:52;;;;;;;10.20;6.68;;;384.30;2329.60;;;;;;5045150;28;20025;-77
2021/09/20 10:45:45;;;;;;;13.30;8.00;;;384.10;2329.60;;;;;;5033505;28;20018;-77
2021/09/20 10:48:29;;;;;;;10.82;8.20;;;384.00;2329.60;;;;;;5030379;28;20024;-78
2021/09/20 10:50:57;;;;;;;9.73;6.63;;;359.30;2329.60;;;;;;5040494;28;20025;-78
2021/09/20 10:53:32;;;;;;;10.05;5.55;;;384.10;2329.60;;;;;;5046025;28;20032;-80
2021/09/20 10:56:06;;;;;;;9.00;5.93;;;384.00;2329.60;;;;;;5051329;28;20048;-79
2021/09/20 10:58:32;;;;;;;9.95;5.93;;;384.00;2329.60;;;;;;5054561;28;20091;-78
2021/09/20 11:01:15;;;;;;;8.68;5.70;;;384.10;2329.60;;;;;;5040429;28;20033;-77
2021/09/20 11:03:46;;;;;;;6.70;4.90;;;384.10;2329.60;;;;;;5055742;28;20141;-82
2021/09/20 11:06:19;;;;;;;8.38;5.47;;;384.00;2329.60;;;;;;5055626;28;20070;-77
2021/09/20 11:08:45;;;;;;;7.18;4.88;;;384.10;2329.60;;;;;;5055519;28;20104;-81
2021/09/20 11:11:44;;;;;;;11.82;5.28;;;359.30;2329.60;;;;;;5040252;28;20480;-77
2021/09/20 11:14:38;;;;;;;22.92;6.47;;;384.00;2329.60;;;;;;5043819;28;20030;-78
2021/09/20 11:17:23;;;;;;;9.77;6.97;;;384.00;2329.60;;;;;;5022398;28;20025;-84
2021/09/20 11:19:50;;;;;;;7.68;5.63;;;384.10;2329.60;;;;;;5048387;28;20041;-80
2021/09/20 11:22:16;;;;;;;8.93;5.38;;;384.00;2329.60;;;;;;5035148;28;20025;-77
2021/09/20 11:24:53;;;;;;;11.57;6.72;;;384.00;2329.60;;;;;;5035431;28;20034;-78
2021/09/20 11:27:21;;;;;;;8.85;5.82;;;359.30;2329.60;;;;;;5033716;28;20036;-81
2021/09/20 11:30:09;;;;;;;8.88;5.32;;;384.00;2329.60;;;;;;5033422;28;20045;-76
2021/09/20 11:32:53;;;;;;;8.70;5.10;;;359.30;2329.60;;;;;;5033108;28;20018;-84
2021/09/20 11:35:19;;;;;;;6.70;5.07;;;359.20;2329.60;;;;;;5034256;28;20018;-76
2021/09/20 11:37:45;;;;;;;10.50;5.82;;;384.00;2329.60;;;;;;5033728;28;20478;-80
2021/09/20 11:40:18;;;;;;;9.32;6.35;;;384.10;2329.60;;;;;;5033484;28;20041;-82
2021/09/20 11:42:43;;;;;;;15.43;6.65;;;384.20;2329.60;;;;;;5034145;28;20021;-82
2021/09/20 11:45:27;;;;;;;7.30;4.90;;;384.20;2329.60;;;;;;5044811;28;20385;-78
2021/09/20 11:48:02;;;;;;;7.57;5.28;;;384.10;2329.60;;;;;;5033753;28;20048;-77
2021/09/20 11:50:30;;;;;;;9.68;5.07;;;384.10;2329.60;;;;;;5033473;28;20025;-78
2021/09/20 11:53:01;;;;;;;12.60;5.30;;;384.00;2329.60;;;;;;5030912;28;20044;-80
2021/09/20 11:55:27;;;;;;;9.27;5.57;;;359.30;2329.60;;;;;;5033244;28;20119;-77
2021/09/20 11:57:58;;;;;;;10.18;5.65;;;359.30;2329.60;;;;;;5032494;28;20022;-76
2021/09/20 12:00:27;;;;;;;7.60;5.15;;;359.20;2329.60;;;;;;5037321;28;20034;-80
2021/09/20 12:02:55;;;;;;;10.07;5.80;;;359.30;2329.60;;;;;;5034232;28;20025;-76
2021/09/20 12:05:29;;;;;;;8.30;5.40;;;359.20;2329.60;;;;;;5034224;28;20022;-76
2021/09/20 12:07:58;;;;;;;8.25;5.85;;;359.10;2329.60;;;;;;5031842;28;20374;-76
2021/09/20 12:10:30;;;;;;;10.27;6.72;;;359.10;2329.60;;;;;;5034386;28;20025;-79
2021/09/20 12:12:58;;;;;;;11.73;7.30;;;359.00;2329.60;;;;;;5032887;28;20517;-76
2021/09/20 12:15:30;;;;;;;8.88;6.30;;;359.00;2329.60;;;;;;5035898;28;20414;-77
2021/09/20 12:17:59;;;;;;;9.45;5.57;;;359.30;2329.60;;;;;;5049666;28;20017;-76